地図

経路データ

SID SEASON NUMBER BASIN SUBBASIN NAME ISO_TIME NATURE LAT LON WMO_WIND WMO_PRES WMO_AGENCY TRACK_TYPE DIST2LAND LANDFALL IFLAG USA_AGENCY USA_ATCF_ID USA_LAT USA_LON USA_RECORD USA_STATUS USA_WIND USA_PRES USA_SSHS USA_R34_NE USA_R34_SE USA_R34_SW USA_R34_NW USA_R50_NE USA_R50_SE USA_R50_SW USA_R50_NW USA_R64_NE USA_R64_SE USA_R64_SW USA_R64_NW USA_POCI USA_ROCI USA_RMW USA_EYE TOKYO_LAT TOKYO_LON TOKYO_GRADE TOKYO_WIND TOKYO_PRES TOKYO_R50_DIR TOKYO_R50_LONG TOKYO_R50_SHORT TOKYO_R30_DIR TOKYO_R30_LONG TOKYO_R30_SHORT TOKYO_LAND CMA_LAT CMA_LON CMA_CAT CMA_WIND CMA_PRES HKO_LAT HKO_LON HKO_CAT HKO_WIND HKO_PRES NEWDELHI_LAT NEWDELHI_LON NEWDELHI_GRADE NEWDELHI_WIND NEWDELHI_PRES NEWDELHI_CI NEWDELHI_DP NEWDELHI_POCI REUNION_LAT REUNION_LON REUNION_TYPE REUNION_WIND REUNION_PRES REUNION_TNUM REUNION_CI REUNION_RMW REUNION_R34_NE REUNION_R34_SE REUNION_R34_SW REUNION_R34_NW REUNION_R50_NE REUNION_R50_SE REUNION_R50_SW REUNION_R50_NW REUNION_R64_NE REUNION_R64_SE REUNION_R64_SW REUNION_R64_NW BOM_LAT BOM_LON BOM_TYPE BOM_WIND BOM_PRES BOM_TNUM BOM_CI BOM_RMW BOM_R34_NE BOM_R34_SE BOM_R34_SW BOM_R34_NW BOM_R50_NE BOM_R50_SE BOM_R50_SW BOM_R50_NW BOM_R64_NE BOM_R64_SE BOM_R64_SW BOM_R64_NW BOM_ROCI BOM_POCI BOM_EYE BOM_POS_METHOD BOM_PRES_METHOD NADI_LAT NADI_LON NADI_CAT NADI_WIND NADI_PRES WELLINGTON_LAT WELLINGTON_LON WELLINGTON_WIND WELLINGTON_PRES DS824_LAT DS824_LON DS824_STAGE DS824_WIND DS824_PRES TD9636_LAT TD9636_LON TD9636_STAGE TD9636_WIND TD9636_PRES TD9635_LAT TD9635_LON TD9635_WIND TD9635_PRES TD9635_ROCI NEUMANN_LAT NEUMANN_LON NEUMANN_CLASS NEUMANN_WIND NEUMANN_PRES MLC_LAT MLC_LON MLC_CLASS MLC_WIND MLC_PRES USA_GUST BOM_GUST BOM_GUST_PER REUNION_GUST REUNION_GUST_PER USA_SEAHGT USA_SEARAD_NE USA_SEARAD_SE USA_SEARAD_SW USA_SEARAD_NW STORM_SPEED STORM_DIR
1930214N16150 1930 37 WP MM NOT_NAMED 1930-08-02 10:00:00 NR 15.5000 149.500 spur-merge 1985 1983 __________O___ -1 15.5000 149.500 7 4 292
1930214N16150 1930 37 WP MM NOT_NAMED 1930-08-02 12:00:00 NR 15.5521 149.367 spur-merge 1994 1991 __________P___ -1 15.5521 149.367 7 5 291
1930214N16150 1930 37 WP MM NOT_NAMED 1930-08-02 15:00:00 NR 15.6357 149.137 spur-merge 1991 1991 __________P___ -1 15.6357 149.137 7 6 289
1930214N16150 1930 37 WP MM NOT_NAMED 1930-08-02 18:00:00 NR 15.7335 148.825 spur-merge 1999 1999 __________P___ -1 15.7335 148.825 7 8 287
1930214N16150 1930 37 WP MM NOT_NAMED 1930-08-02 21:00:00 NR 15.8536 148.384 spur-merge 2019 2018 __________P___ -1 15.8536 148.384 7 9 285
1930214N16150 1930 37 WP MM NOT_NAMED 1930-08-02 22:00:00 NR 15.9000 148.200 spur-merge 2018 2017 __________O___ -1 15.9000 148.200 7 12 284
1930214N16150 1930 37 WP MM NOT_NAMED 1930-08-03 00:00:00 NR 16.0028 147.770 spur-merge 2028 2027 __________P___ -1 16.0028 147.770 7 14 283
1930214N16150 1930 37 WP MM NOT_NAMED 1930-08-03 03:00:00 NR 16.1755 146.998 spur-merge 2049 2049 __________P___ -1 16.1755 146.998 7 16 283
1930214N16150 1930 37 WP MM NOT_NAMED 1930-08-03 06:00:00 NR 16.3591 146.125 spur-merge 2073 2073 __________P___ -1 16.3591 146.125 7 18 282
1930214N16150 1930 37 WP MM NOT_NAMED 1930-08-03 09:00:00 NR 16.5414 145.206 spur-merge 2089 2090 __________P___ -1 16.5414 145.206 7 18 282
1930214N16150 1930 37 WP MM NOT_NAMED 1930-08-03 10:00:00 NR 16.6000 144.900 spur-merge 2086 2050 __________O___ -1 16.6000 144.900 7 17 282
1930214N16150 1930 37 WP MM NOT_NAMED 1930-08-03 12:00:00 NR 16.7160 144.315 spur-merge 2050 1993 __________P___ -1 16.7160 144.315 7 17 281
1930214N16150 1930 37 WP MM NOT_NAMED 1930-08-03 15:00:00 NR 16.8842 143.425 spur-merge 1993 1906 __________P___ -1 16.8842 143.425 7 17 281
1930214N16150 1930 37 WP MM NOT_NAMED 1930-08-03 18:00:00 NR 17.0369 142.538 spur-merge 1906 1829 __________P___ -1 17.0369 142.538 7 17 280
1930214N16150 1930 37 WP MM NOT_NAMED 1930-08-03 21:00:00 NR 17.1646 141.677 spur-merge 1829 1799 __________P___ -1 17.1646 141.677 7 17 279
1930214N16150 1930 37 WP MM NOT_NAMED 1930-08-03 22:00:00 NR 17.2000 141.400 spur-merge 1799 1751 __________O___ -1 17.2000 141.400 7 16 277
1930214N16150 1930 37 WP MM NOT_NAMED 1930-08-04 00:00:00 NR 17.2603 140.871 spur-merge 1751 1670 __________P___ -1 17.2603 140.871 7 15 276
1930214N16150 1930 37 WP MM NOT_NAMED 1930-08-04 03:00:00 NR 17.3264 140.110 spur-merge 1670 1603 __________P___ -1 17.3264 140.110 7 14 274
1930214N16150 1930 37 WP MM NOT_NAMED 1930-08-04 06:00:00 NR 17.3691 139.372 spur-merge 1603 1523 __________P___ -1 17.3691 139.372 7 14 273
1930214N16150 1930 37 WP MM NOT_NAMED 1930-08-04 09:00:00 NR 17.3944 138.644 spur-merge 1523 1503 __________P___ -1 17.3944 138.644 7 14 272
1930214N16150 1930 37 WP MM NOT_NAMED 1930-08-04 10:00:00 NR 17.4000 138.400 spur-merge 1503 1454 __________O___ -1 17.4000 138.400 7 15 271
1930214N16150 1930 37 WP MM NOT_NAMED 1930-08-04 12:00:00 NR 17.4061 137.879 spur-merge 1454 1376 __________P___ -1 17.4061 137.879 7 15 270
1930214N16150 1930 37 WP MM NOT_NAMED 1930-08-04 15:00:00 NR 17.4028 137.097 spur-merge 1376 1298 __________P___ -1 17.4028 137.097 7 15 270
1930214N16150 1930 37 WP MM NOT_NAMED 1930-08-04 18:00:00 NR 17.3952 136.336 spur-merge 1298 1231 __________P___ -1 17.3952 136.336 7 14 270
1930214N16150 1930 37 WP MM NOT_NAMED 1930-08-04 21:00:00 NR 17.3958 135.623 spur-merge 1231 1213 __________P___ -1 17.3958 135.623 7 13 270
1930214N16150 1930 37 WP MM NOT_NAMED 1930-08-04 22:00:00 NR 17.4000 135.400 spur-merge 1213 1175 __________O___ -1 17.4000 135.400 7 12 273
1930214N16150 1930 37 WP MM NOT_NAMED 1930-08-05 00:00:00 NR 17.4262 134.985 spur-merge 1175 1125 __________P___ -1 17.4262 134.985 7 11 275
1930214N16150 1930 37 WP MM NOT_NAMED 1930-08-05 03:00:00 NR 17.4790 134.414 spur-merge 1125 1080 __________P___ -1 17.4790 134.414 7 11 276
1930214N16150 1930 37 WP MM NOT_NAMED 1930-08-05 06:00:00 NR 17.5370 133.882 spur-merge 1080 1042 __________P___ -1 17.5370 133.882 7 10 276
1930214N16150 1930 37 WP MM NOT_NAMED 1930-08-05 09:00:00 NR 17.5872 133.370 spur-merge 1042 1024 __________P___ -1 17.5872 133.370 7 10 276
1930214N16150 1930 37 WP MM NOT_NAMED 1930-08-05 10:00:00 NR 17.6000 133.200 spur-merge 1024 989 __________O___ -1 17.6000 133.200 7 10 272
1930214N16150 1930 37 WP MM NOT_NAMED 1930-08-05 12:00:00 NR 17.6059 132.839 spur-merge 989 941 __________P___ -1 17.6059 132.839 7 10 270
1930214N16150 1930 37 WP MM NOT_NAMED 1930-08-05 15:00:00 NR 17.6023 132.303 spur-merge 941 893 __________P___ -1 17.6023 132.303 7 10 269
1930214N16150 1930 37 WP MM NOT_NAMED 1930-08-05 18:00:00 NR 17.5947 131.778 spur-merge 893 846 __________P___ -1 17.5947 131.778 7 10 270
1930214N16150 1930 37 WP MM NOT_NAMED 1930-08-05 21:00:00 NR 17.5956 131.267 spur-merge 846 828 __________P___ -1 17.5956 131.267 7 10 270
1930214N16150 1930 37 WP MM NOT_NAMED 1930-08-05 22:00:00 NR 17.6000 131.100 spur-merge 828 800 __________O___ -1 17.6000 131.100 7 10 273
1930214N16150 1930 37 WP MM NOT_NAMED 1930-08-06 00:00:00 NR 17.6190 130.769 spur-merge 800 761 __________P___ -1 17.6190 130.769 7 9 274
1930214N16150 1930 37 WP MM NOT_NAMED 1930-08-06 03:00:00 NR 17.6602 130.286 spur-merge 761 717 __________P___ -1 17.6602 130.286 7 9 276
1930214N16150 1930 37 WP MM NOT_NAMED 1930-08-06 06:00:00 NR 17.7141 129.815 spur-merge 717 690 __________P___ -1 17.7141 129.815 7 9 278
1930214N16150 1930 37 WP MM NOT_NAMED 1930-08-06 09:00:00 NR 17.7774 129.353 spur-merge 690 673 __________P___ -1 17.7774 129.353 7 9 278
1930214N16150 1930 37 WP MM NOT_NAMED 1930-08-06 10:00:00 NR 17.8000 129.200 spur-merge 673 649 __________O___ -1 17.8000 129.200 7 9 278
1930214N16150 1930 37 WP MM NOT_NAMED 1930-08-06 12:00:00 NR 17.8416 128.881 spur-merge 649 618 __________P___ -1 17.8416 128.881 7 9 278
1930214N16150 1930 37 WP MM NOT_NAMED 1930-08-06 15:00:00 NR 17.9103 128.409 spur-merge 618 593 __________P___ -1 17.9103 128.409 7 9 279
1930214N16150 1930 37 WP MM NOT_NAMED 1930-08-06 18:00:00 NR 17.9866 127.955 spur-merge 593 544 __________P___ -1 17.9866 127.955 7 9 281
1930214N16150 1930 37 WP MM NOT_NAMED 1930-08-06 21:00:00 NR 18.0704 127.532 spur-merge 544 533 __________P___ -1 18.0704 127.532 7 8 282
1930214N16150 1930 37 WP MM NOT_NAMED 1930-08-06 22:00:00 NR 18.1000 127.400 spur-merge 533 505 __________O___ -1 18.1000 127.400 7 8 283
1930214N16150 1930 37 WP MM NOT_NAMED 1930-08-07 00:00:00 NR 18.1554 127.144 spur-merge 505 475 __________P___ -1 18.1554 127.144 7 7 284
1930214N16150 1930 37 WP MM NOT_NAMED 1930-08-07 03:00:00 NR 18.2451 126.792 spur-merge 475 443 __________P___ -1 18.2451 126.792 7 7 287
1930214N16150 1930 37 WP MM NOT_NAMED 1930-08-07 06:00:00 NR 18.3451 126.474 spur-merge 443 411 __________P___ -1 18.3451 126.474 7 6 290
1930214N16150 1930 37 WP MM NOT_NAMED 1930-08-07 09:00:00 NR 18.4587 126.189 spur-merge 411 401 __________P___ -1 18.4587 126.189 7 6 294
1930214N16150 1930 37 WP MM NOT_NAMED 1930-08-07 10:00:00 NR 18.5000 126.100 spur-merge 401 380 __________O___ -1 18.5000 126.100 7 6 292
1930214N16150 1930 37 WP MM NOT_NAMED 1930-08-07 12:00:00 NR 18.5649 125.914 spur-merge 380 359 __________P___ -1 18.5649 125.914 7 5 293
1930214N16150 1930 37 WP MM NOT_NAMED 1930-08-07 15:00:00 NR 18.6744 125.660 spur-merge 360 329 __________P___ -1 18.6744 125.660 7 5 299
1930214N16150 1930 37 WP MM NOT_NAMED 1930-08-07 18:00:00 NR 18.8179 125.439 spur-merge 329 321 __________P___ -1 18.8179 125.439 7 5 312
1930214N16150 1930 37 WP MM NOT_NAMED 1930-08-07 21:00:00 NR 19.0174 125.253 spur-merge 323 312 __________P___ -1 19.0174 125.253 7 5 321
1930214N16150 1930 37 WP MM NOT_NAMED 1930-08-07 22:00:00 NR 19.1000 125.200 spur-merge 315 308 __________O___ -1 19.1000 125.200 7 6 328
1930214N16150 1930 37 WP MM NOT_NAMED 1930-08-08 00:00:00 NR 19.2907 125.076 spur-merge 311 301 __________P___ -1 19.2907 125.076 7 7 334
1930214N16150 1930 37 WP MM NOT_NAMED 1930-08-08 03:00:00 NR 19.6333 124.922 spur-merge 304 309 __________P___ -1 19.6333 124.922 7 8 342
1930214N16150 1930 37 WP MM NOT_NAMED 1930-08-08 06:00:00 NR 20.0273 124.820 spur-merge 317 324 __________P___ -1 20.0273 124.820 7 8 351
1930214N16150 1930 37 WP MM NOT_NAMED 1930-08-08 09:00:00 NR 20.4538 124.791 spur-merge 351 351 __________P___ -1 20.4538 124.791 7 9 357
1930214N16150 1930 37 WP MM NOT_NAMED 1930-08-08 10:00:00 NR 20.6000 124.800 spur-merge 359 359 __________O___ -1 20.6000 124.800 7 9 7
1930214N16150 1930 37 WP MM NOT_NAMED 1930-08-08 12:00:00 NR 20.8986 124.843 spur-merge 383 383 __________P___ -1 20.8986 124.843 7 9 12
1930214N16150 1930 37 WP MM NOT_NAMED 1930-08-08 15:00:00 NR 21.3657 124.977 spur-merge 416 406 __________P___ -1 21.3657 124.977 7 10 18
1930214N16150 1930 37 WP MM NOT_NAMED 1930-08-08 18:00:00 NR 21.8310 125.175 spur-merge 416 408 __________P___ -1 21.8310 125.175 7 10 24
1930214N16150 1930 37 WP MM NOT_NAMED 1930-08-08 21:00:00 NR 22.2664 125.415 spur-merge 419 419 __________P___ -1 22.2664 125.415 7 10 28
1930214N16150 1930 37 WP MM NOT_NAMED 1930-08-08 22:00:00 NR 22.4000 125.500 spur-merge 427 425 __________O___ -1 22.4000 125.500 7 9 30
1930214N16150 1930 37 WP MM NOT_NAMED 1930-08-09 00:00:00 NR 22.6393 125.648 spur-merge 432 430 __________P___ -1 22.6393 125.648 7 8 33
1930214N16150 1930 37 WP MM NOT_NAMED 1930-08-09 03:00:00 NR 22.9607 125.894 spur-merge 440 440 __________P___ -1 22.9607 125.894 7 8 38
1930214N16150 1930 37 WP MM NOT_NAMED 1930-08-09 06:00:00 NR 23.2480 126.173 spur-merge 460 456 __________P___ -1 23.2480 126.173 7 8 45
1930214N16150 1930 37 WP MM NOT_NAMED 1930-08-09 09:00:00 NR 23.5139 126.487 spur-merge 480 477 __________P___ -1 23.5139 126.487 7 8 48
1930214N16150 1930 37 WP MM NOT_NAMED 1930-08-09 10:00:00 NR 23.6000 126.600 spur-merge 487 487 __________O___ -1 23.6000 126.600 7 8 51
1930214N16150 1930 37 WP MM NOT_NAMED 1930-08-09 12:00:00 NR 23.7705 126.839 spur-merge 502 512 __________P___ -1 23.7705 126.839 7 9 53
1930214N16150 1930 37 WP MM NOT_NAMED 1930-08-09 15:00:00 NR 24.0228 127.224 spur-merge 537 537 __________P___ -1 24.0228 127.224 7 9 55
1930214N16150 1930 37 WP MM NOT_NAMED 1930-08-09 18:00:00 NR 24.2718 127.634 spur-merge 570 580 __________P___ -1 24.2718 127.634 7 9 57
1930214N16150 1930 37 WP MM NOT_NAMED 1930-08-09 21:00:00 NR 24.5182 128.057 spur-merge 618 616 __________P___ -1 24.5182 128.057 7 9 58
1930214N16150 1930 37 WP MM NOT_NAMED 1930-08-09 22:00:00 NR 24.6000 128.200 spur-merge 626 __________O___ -1 24.6000 128.200 7 9 58

デジタル台風データ・検索

IBTrACS Databaseについて

本データベースは、米国NOAAが公開する1842年以降の世界の熱帯低気圧のベストトラックデータアーカイブInternational Best Track Archive for Climate Stewardship (IBTrACS)を、ウェブで閲覧しやすい形式に変換したものです。

最終更新日:2021-11-26